Time;durP1;ratioP1;P1;durP2;ratioP2;P2;SDS_P1;SDS_P2;PMS_P1;PMS_P2;Temp;Humidity;BMP_temperature;BMP_pressure;BME280_temperature;BME280_humidity;BME280_pressure;Samples;Min_cycle;Max_cycle;Signal;HPM_P1;HPM_P2
2022/09/18 00:00:02;;;;;;;7.18;1.60;;;12.50;99.90;;;;;;6218353;22;20023;-87
2022/09/18 00:02:51;;;;;;;4.70;1.00;;;11.90;99.90;;;;;;6251553;22;20011;-88
2022/09/18 00:05:43;;;;;;;6.55;1.40;;;13.50;99.90;;;;;;6250716;22;20414;-89
2022/09/18 00:08:30;;;;;;;;;;;;;;;;;;;;;
2022/09/18 00:11:29;;;;;;;10.90;1.48;;;12.60;99.90;;;;;;6268280;22;20015;-87
2022/09/18 00:13:58;;;;;;;4.57;1.15;;;12.70;99.90;;;;;;6222836;22;20016;-88
2022/09/18 00:16:32;;;;;;;6.13;1.20;;;12.60;99.90;;;;;;6248332;22;20089;-89
2022/09/18 00:19:00;;;;;;;7.28;1.77;;;12.60;99.90;;;;;;6246702;22;20357;-87
2022/09/18 00:21:36;;;;;;;;;;;;;;;;;;;;;
2022/09/18 00:24:18;;;;;;;;;;;;;;;;;;;;;
2022/09/18 00:26:47;;;;;;;5.85;1.40;;;12.40;99.90;;;;;;6273745;22;20043;-88
2022/09/18 00:29:18;;;;;;;3.45;1.00;;;12.30;99.90;;;;;;6247599;22;20030;-87
2022/09/18 00:31:58;;;;;;;6.50;1.55;;;12.40;99.90;;;;;;6271479;22;20015;-88
2022/09/18 00:34:40;;;;;;;6.35;1.35;;;11.90;99.90;;;;;;6222493;22;20045;-86
2022/09/18 00:37:06;;;;;;;4.30;1.10;;;12.20;99.90;;;;;;6249406;22;20782;-86
2022/09/18 00:39:35;;;;;;;8.43;1.30;;;12.20;99.90;;;;;;6245121;22;20058;-87
2022/09/18 00:42:01;;;;;;;5.63;1.30;;;12.20;99.90;;;;;;6245323;22;20019;-87
2022/09/18 00:44:37;;;;;;;5.20;1.30;;;11.30;99.90;;;;;;6245332;22;20019;-86
2022/09/18 00:47:37;;;;;;;7.70;1.80;;;12.30;99.90;;;;;;6244531;22;20019;-88
2022/09/18 00:50:23;;;;;;;5.55;1.60;;;12.00;99.90;;;;;;6237593;22;20015;-88
2022/09/18 00:53:00;;;;;;;8.63;2.05;;;12.10;99.90;;;;;;6245385;22;20072;-88
2022/09/18 00:55:36;;;;;;;6.93;1.40;;;12.00;99.90;;;;;;6245658;22;20051;-87
2022/09/18 00:58:22;;;;;;;9.52;1.20;;;12.00;99.90;;;;;;6245844;22;20351;-86
2022/09/18 01:01:00;;;;;;;8.63;1.42;;;11.90;99.90;;;;;;6244848;22;20416;-86
2022/09/18 01:03:29;;;;;;;8.43;1.10;;;11.90;99.90;;;;;;6223488;22;20020;-89
2022/09/18 01:06:11;;;;;;;6.30;1.50;;;11.90;99.90;;;;;;6216332;22;20034;-88
2022/09/18 01:09:07;;;;;;;8.65;1.48;;;12.00;99.90;;;;;;6213407;22;20019;-86
2022/09/18 01:11:56;;;;;;;7.07;1.50;;;12.00;99.90;;;;;;6214381;22;20016;-87
2022/09/18 01:14:43;;;;;;;8.60;1.50;;;11.90;99.90;;;;;;6215160;22;20027;-87
2022/09/18 01:17:27;;;;;;;6.82;1.30;;;12.30;99.90;;;;;;6241335;22;20068;-87
2022/09/18 01:20:17;;;;;;;5.35;1.52;;;12.00;99.90;;;;;;6213267;22;20019;-87
2022/09/18 01:23:12;;;;;;;6.70;1.40;;;12.10;99.90;;;;;;6213571;22;20045;-88
2022/09/18 01:26:10;;;;;;;;;;;;;;;;;;;;;
2022/09/18 01:28:48;;;;;;;7.10;1.58;;;12.10;99.90;;;;;;6237830;22;20019;-87
2022/09/18 01:32:00;;;;;;;6.43;1.40;;;12.10;99.90;;;;;;6214230;22;20020;-87
2022/09/18 01:35:20;;;;;;;;;;;;;;;;;;;;;
2022/09/18 01:37:56;;;;;;;7.05;1.42;;;12.20;99.90;;;;;;6100988;23;20025;-88
2022/09/18 01:40:41;;;;;;;3.45;1.02;;;12.30;99.90;;;;;;6116242;23;20027;-88
2022/09/18 01:43:14;;;;;;;5.15;1.02;;;12.40;99.90;;;;;;6189468;22;20019;-88
2022/09/18 01:45:49;;;;;;;2.60;0.82;;;12.40;99.90;;;;;;6216809;22;20024;-89
2022/09/18 01:48:33;;;;;;;3.72;0.95;;;12.40;99.90;;;;;;6242118;22;20440;-88
2022/09/18 01:51:32;;;;;;;4.25;1.10;;;12.40;99.90;;;;;;6215785;22;20023;-88
2022/09/18 01:54:09;;;;;;;4.85;0.90;;;12.60;99.90;;;;;;6241695;22;20015;-88
2022/09/18 01:56:51;;;;;;;7.05;1.20;;;12.90;99.90;;;;;;6215234;22;20336;-88
2022/09/18 02:00:00;;;;;;;5.43;1.10;;;12.60;99.90;;;;;;6215201;22;20055;-88
2022/09/18 02:02:36;;;;;;;5.20;1.13;;;12.60;99.90;;;;;;6222908;22;20092;-88
2022/09/18 02:05:08;;;;;;;6.32;1.00;;;12.30;99.90;;;;;;6248404;22;20336;-88
2022/09/18 02:07:52;;;;;;;5.28;1.05;;;12.80;99.90;;;;;;6220513;22;20016;-88
2022/09/18 02:10:22;;;;;;;5.63;1.20;;;12.90;99.90;;;;;;6218320;22;20447;-88
2022/09/18 02:12:57;;;;;;;5.53;1.27;;;12.80;99.90;;;;;;6215502;22;20015;-89
2022/09/18 02:15:25;;;;;;;6.03;1.60;;;12.00;99.90;;;;;;6216394;22;20019;-88
2022/09/18 02:18:00;;;;;;;7.75;1.65;;;12.70;99.90;;;;;;6215873;22;20023;-88
2022/09/18 02:20:39;;;;;;;9.80;1.45;;;11.60;99.90;;;;;;6217862;22;20023;-88
2022/09/18 02:23:09;;;;;;;6.30;1.23;;;12.60;99.90;;;;;;6214487;22;20015;-88
2022/09/18 02:25:56;;;;;;;4.25;1.20;;;12.60;99.90;;;;;;6190546;22;20027;-88
2022/09/18 02:28:27;;;;;;;5.97;1.40;;;12.50;99.90;;;;;;6240031;22;20020;-87
2022/09/18 02:31:11;;;;;;;;;;;;;;;;;;;;;
2022/09/18 02:33:44;;;;;;;4.60;0.93;;;12.40;99.90;;;;;;6242736;22;20020;-89
2022/09/18 02:36:32;;;;;;;3.17;0.90;;;12.20;99.90;;;;;;6220341;22;20016;-87
2022/09/18 02:39:07;;;;;;;4.85;1.00;;;12.30;99.90;;;;;;6218132;22;20027;-87
2022/09/18 02:41:39;;;;;;;8.25;1.05;;;12.30;99.90;;;;;;6217615;22;20102;-88
2022/09/18 02:44:27;;;;;;;3.35;0.70;;;12.30;99.90;;;;;;6217091;22;20350;-87
2022/09/18 02:47:19;;;;;;;;;;;;;;;;;;;;;
2022/09/18 02:50:15;;;;;;;2.97;1.00;;;12.20;99.90;;;;;;6241478;22;20091;-88
2022/09/18 02:52:47;;;;;;;4.38;1.10;;;12.30;99.90;;;;;;6215324;22;20023;-88
2022/09/18 02:55:40;;;;;;;7.45;1.48;;;12.10;99.90;;;;;;6217952;22;20528;-88
2022/09/18 02:58:15;;;;;;;4.63;1.38;;;12.40;99.90;;;;;;6216768;22;20451;-88
2022/09/18 03:00:51;;;;;;;7.88;1.65;;;12.30;99.90;;;;;;6241851;22;20023;-88
2022/09/18 03:03:35;;;;;;;6.28;1.17;;;12.20;99.90;;;;;;6260149;22;20015;-89
2022/09/18 03:06:12;;;;;;;5.03;1.20;;;11.80;99.90;;;;;;6249641;22;20201;-88
2022/09/18 03:08:45;;;;;;;10.93;1.60;;;12.20;99.90;;;;;;6249055;22;20104;-87
2022/09/18 03:11:13;;;;;;;21.17;2.03;;;12.30;99.90;;;;;;6248211;22;20073;-87
2022/09/18 03:13:39;;;;;;;7.82;1.80;;;12.20;99.90;;;;;;6247266;22;20454;-87
2022/09/18 03:16:05;;;;;;;9.90;1.55;;;11.50;99.90;;;;;;6248115;22;20107;-87
2022/09/18 03:18:31;;;;;;;11.95;2.10;;;12.20;99.90;;;;;;6274056;22;20084;-87
2022/09/18 03:20:59;;;;;;;9.23;1.60;;;11.40;99.90;;;;;;6247153;22;20019;-87
2022/09/18 03:23:30;;;;;;;5.15;1.40;;;12.20;99.90;;;;;;6248776;22;20011;-87
2022/09/18 03:26:00;;;;;;;7.03;1.20;;;12.10;99.90;;;;;;6223239;22;20169;-87
2022/09/18 03:28:29;;;;;;;5.57;1.13;;;12.10;99.90;;;;;;6249476;22;20019;-88
2022/09/18 03:31:05;;;;;;;8.57;1.35;;;12.00;99.90;;;;;;6247094;22;20674;-87
2022/09/18 03:33:40;;;;;;;;;;;10.70;99.90;;;;;;6274954;22;20019;-87
2022/09/18 03:36:09;;;;;;;3.70;0.90;;;11.90;99.90;;;;;;6249700;22;19915;-87
2022/09/18 03:38:41;;;;;;;6.88;0.90;;;11.80;99.90;;;;;;6224991;22;20121;-87
2022/09/18 03:41:07;;;;;;;4.97;1.00;;;11.90;99.90;;;;;;6223692;22;20046;-86
2022/09/18 03:43:36;;;;;;;3.67;0.98;;;13.20;99.90;;;;;;6273917;22;20018;-86
2022/09/18 03:46:03;;;;;;;4.90;0.95;;;11.80;99.90;;;;;;6273712;22;20019;-86
2022/09/18 03:48:39;;;;;;;4.15;0.98;;;11.80;99.90;;;;;;6248515;22;20444;-86
2022/09/18 03:51:12;;;;;;;3.83;1.15;;;11.80;99.90;;;;;;6247595;22;20026;-87
2022/09/18 03:53:41;;;;;;;3.50;0.77;;;11.90;99.90;;;;;;6248805;22;20450;-86
2022/09/18 03:56:07;;;;;;;2.97;0.90;;;11.90;99.90;;;;;;6273866;22;20012;-87
2022/09/18 03:58:35;;;;;;;6.82;1.20;;;11.90;99.90;;;;;;6248815;22;20139;-88
2022/09/18 04:01:04;;;;;;;9.85;1.92;;;12.00;99.90;;;;;;6247607;22;20561;-87
2022/09/18 04:03:30;;;;;;;9.88;2.05;;;12.10;99.90;;;;;;6227693;22;20443;-87
2022/09/18 04:05:56;;;;;;;12.82;1.83;;;12.20;99.90;;;;;;6215863;22;20030;-86
2022/09/18 04:08:21;;;;;;;12.05;1.73;;;10.90;99.90;;;;;;6215689;22;20545;-85
2022/09/18 04:10:47;;;;;;;10.95;1.85;;;11.20;99.90;;;;;;6213490;22;20058;-85
2022/09/18 04:13:14;;;;;;;10.93;1.90;;;12.00;99.90;;;;;;6215603;22;20023;-85
2022/09/18 04:15:40;;;;;;;8.07;1.65;;;12.00;99.90;;;;;;6216298;22;20019;-86
2022/09/18 04:18:06;;;;;;;11.90;2.10;;;10.80;99.90;;;;;;6216016;22;20020;-86
2022/09/18 04:20:32;;;;;;;4.75;1.45;;;11.80;99.90;;;;;;6215607;22;20047;-86
2022/09/18 04:22:58;;;;;;;14.48;2.00;;;11.80;99.90;;;;;;6216846;22;20022;-86
2022/09/18 04:25:24;;;;;;;13.50;2.10;;;11.10;99.90;;;;;;6192315;22;20015;-86
2022/09/18 04:27:51;;;;;;;11.52;1.70;;;10.50;99.90;;;;;;6216595;22;20096;-86
2022/09/18 04:30:24;;;;;;;7.00;1.70;;;11.90;99.90;;;;;;6216027;22;20022;-87
2022/09/18 04:32:50;;;;;;;9.98;1.58;;;11.70;99.90;;;;;;6216102;22;20093;-86
2022/09/18 04:35:20;;;;;;;10.25;1.48;;;11.70;99.90;;;;;;6219173;22;20020;-86
2022/09/18 04:37:54;;;;;;;3.42;1.25;;;11.70;99.90;;;;;;6222274;22;20015;-87
2022/09/18 04:40:20;;;;;;;4.45;1.05;;;11.80;99.90;;;;;;6199313;22;20019;-86
2022/09/18 04:42:49;;;;;;;4.43;1.08;;;11.70;99.90;;;;;;6194237;22;20030;-88
2022/09/18 04:45:18;;;;;;;6.60;1.10;;;11.80;99.90;;;;;;6218994;22;20320;-87
2022/09/18 04:47:49;;;;;;;5.95;1.08;;;11.90;99.90;;;;;;6216252;22;20031;-87
2022/09/18 04:50:18;;;;;;;5.72;1.40;;;11.90;99.90;;;;;;6217261;22;20386;-86
2022/09/18 04:52:47;;;;;;;4.75;1.00;;;12.00;99.90;;;;;;6215608;22;20020;-87
2022/09/18 04:55:18;;;;;;;4.20;1.13;;;12.10;99.90;;;;;;6218152;22;20016;-87
2022/09/18 04:57:44;;;;;;;5.18;1.30;;;11.30;99.90;;;;;;6217247;22;20058;-88
2022/09/18 05:00:22;;;;;;;7.57;1.33;;;12.10;99.90;;;;;;6190966;22;20051;-86
2022/09/18 05:03:01;;;;;;;7.97;1.73;;;12.20;99.90;;;;;;6226689;22;20100;-86
2022/09/18 05:05:36;;;;;;;5.82;1.45;;;12.10;99.90;;;;;;6274160;22;20024;-86
2022/09/18 05:08:02;;;;;;;8.52;1.35;;;11.80;99.90;;;;;;6272514;22;20023;-87
2022/09/18 05:10:51;;;;;;;4.82;1.30;;;12.00;99.90;;;;;;6246593;22;20019;-87
2022/09/18 05:13:17;;;;;;;6.07;1.57;;;12.00;99.90;;;;;;6247921;22;20019;-86
2022/09/18 05:15:45;;;;;;;7.43;1.48;;;12.10;99.90;;;;;;6250217;22;20333;-87
2022/09/18 05:18:24;;;;;;;7.40;1.58;;;12.00;99.90;;;;;;6248771;22;20051;-86
2022/09/18 05:20:57;;;;;;;7.28;1.48;;;12.20;99.90;;;;;;6248275;22;20019;-87
2022/09/18 05:23:23;;;;;;;9.40;1.65;;;12.10;99.90;;;;;;6250435;22;20089;-87
2022/09/18 05:25:49;;;;;;;5.82;1.27;;;12.30;99.90;;;;;;6248944;22;20494;-87
2022/09/18 05:28:18;;;;;;;7.03;1.10;;;12.50;99.90;;;;;;6248803;22;20058;-88
2022/09/18 05:31:09;;;;;;;4.70;1.00;;;12.10;99.90;;;;;;6223617;22;20017;-87
2022/09/18 05:33:40;;;;;;;3.75;0.95;;;11.00;99.90;;;;;;6248996;22;20054;-86
2022/09/18 05:36:09;;;;;;;2.38;0.90;;;12.30;99.90;;;;;;6222265;22;20094;-87
2022/09/18 05:38:46;;;;;;;5.05;1.30;;;12.20;99.90;;;;;;6247820;22;20023;-87
2022/09/18 05:41:11;;;;;;;4.10;1.00;;;12.30;99.90;;;;;;6222959;22;20438;-87
2022/09/18 05:44:03;;;;;;;7.95;1.15;;;12.20;99.90;;;;;;6250072;22;20015;-86
2022/09/18 05:46:37;;;;;;;4.28;1.15;;;12.30;99.90;;;;;;6248195;22;20021;-86
2022/09/18 05:49:05;;;;;;;3.35;0.90;;;12.30;99.90;;;;;;6272605;22;20053;-86
2022/09/18 05:52:02;;;;;;;;;;;;;;;;;;;;;
2022/09/18 05:54:35;;;;;;;5.00;1.88;;;12.30;99.90;;;;;;6259561;22;20037;-87
2022/09/18 05:57:03;;;;;;;5.20;1.13;;;11.30;99.90;;;;;;6243584;22;20020;-86
2022/09/18 05:59:37;;;;;;;3.17;1.05;;;13.70;99.90;;;;;;6193631;22;20313;-87
2022/09/18 06:02:03;;;;;;;2.20;0.98;;;12.50;99.90;;;;;;6192055;22;20411;-87
2022/09/18 06:04:34;;;;;;;3.38;0.80;;;12.30;99.90;;;;;;6218225;22;20023;-86
2022/09/18 06:07:29;;;;;;;2.47;0.80;;;11.60;99.90;;;;;;6218484;22;20027;-86
2022/09/18 06:09:54;;;;;;;6.45;1.10;;;12.50;99.90;;;;;;6194709;22;20049;-87
2022/09/18 06:12:20;;;;;;;6.25;1.13;;;12.10;99.90;;;;;;6191467;22;20030;-86
2022/09/18 06:14:46;;;;;;;3.97;1.17;;;12.50;99.90;;;;;;6217536;22;20020;-85
2022/09/18 06:17:12;;;;;;;6.10;1.23;;;12.10;99.90;;;;;;6216975;22;20517;-85
2022/09/18 06:19:38;;;;;;;4.43;1.50;;;11.90;99.90;;;;;;6216824;22;20589;-85
2022/09/18 06:22:03;;;;;;;7.30;1.15;;;11.70;99.90;;;;;;6216034;22;20012;-84
2022/09/18 06:24:29;;;;;;;3.55;1.25;;;11.70;99.90;;;;;;6241979;22;20023;-85
2022/09/18 06:26:57;;;;;;;5.25;1.10;;;11.70;99.90;;;;;;6217827;22;20051;-85
2022/09/18 06:29:23;;;;;;;8.68;1.30;;;11.50;99.90;;;;;;6218517;22;20477;-85
2022/09/18 06:31:52;;;;;;;7.88;1.25;;;11.50;99.90;;;;;;6241190;22;20016;-84
2022/09/18 06:34:20;;;;;;;7.15;1.05;;;11.80;99.90;;;;;;6216918;22;20058;-84
2022/09/18 06:36:46;;;;;;;6.22;0.98;;;11.40;99.90;;;;;;6243646;22;20020;-84
2022/09/18 06:39:12;;;;;;;4.95;1.00;;;11.60;99.90;;;;;;6241144;22;20104;-84
2022/09/18 06:41:38;;;;;;;4.72;1.05;;;11.50;99.90;;;;;;6241376;22;20047;-84
2022/09/18 06:44:04;;;;;;;5.13;1.15;;;11.20;99.90;;;;;;6215274;22;20034;-83
2022/09/18 06:46:29;;;;;;;10.68;1.63;;;11.20;99.90;;;;;;6193059;22;20447;-88
2022/09/18 06:48:55;;;;;;;10.57;1.73;;;11.30;99.90;;;;;;6218247;22;20095;-86
2022/09/18 06:51:21;;;;;;;8.18;1.70;;;12.00;99.90;;;;;;6220213;22;20020;-84
2022/09/18 06:53:47;;;;;;;7.10;1.48;;;11.30;99.90;;;;;;6220567;22;20051;-85
2022/09/18 06:56:13;;;;;;;5.50;1.15;;;11.40;99.90;;;;;;6220555;22;20059;-83
2022/09/18 06:58:41;;;;;;;13.00;2.28;;;11.40;99.90;;;;;;6245756;22;20022;-83
2022/09/18 07:01:07;;;;;;;13.38;1.83;;;11.50;99.90;;;;;;6218049;22;20026;-83
2022/09/18 07:03:33;;;;;;;11.65;1.90;;;11.50;99.90;;;;;;6219513;22;20019;-85
2022/09/18 07:05:59;;;;;;;9.20;1.52;;;11.50;99.90;;;;;;6219389;22;20077;-84
2022/09/18 07:08:25;;;;;;;11.05;1.85;;;11.50;99.90;;;;;;6221812;22;20024;-85
2022/09/18 07:10:51;;;;;;;6.43;1.30;;;11.50;99.90;;;;;;6220055;22;20493;-87
2022/09/18 07:13:19;;;;;;;8.15;1.42;;;10.30;99.90;;;;;;6217728;22;20256;-86
2022/09/18 07:15:49;;;;;;;7.32;1.55;;;11.40;99.90;;;;;;6218623;22;20047;-87
2022/09/18 07:18:20;;;;;;;10.20;1.92;;;11.40;99.90;;;;;;6220762;22;20547;-86
2022/09/18 07:20:59;;;;;;;;;;;;;;;;;;;;;
2022/09/18 07:23:30;;;;;;;13.43;1.73;;;11.40;99.90;;;;;;6244565;22;20026;-86
2022/09/18 07:25:59;;;;;;;7.75;1.45;;;11.50;99.90;;;;;;6193069;22;20073;-85
2022/09/18 07:28:33;;;;;;;9.13;1.52;;;11.60;99.90;;;;;;6217473;22;20020;-85
2022/09/18 07:31:05;;;;;;;7.82;2.10;;;11.70;99.90;;;;;;6217395;22;20026;-85
2022/09/18 07:33:31;;;;;;;12.07;1.52;;;11.80;99.90;;;;;;6216658;22;20024;-85
2022/09/18 07:36:04;;;;;;;8.40;1.88;;;11.80;99.90;;;;;;6243792;22;20019;-84
2022/09/18 07:38:30;;;;;;;8.32;1.50;;;11.80;99.90;;;;;;6244845;22;20019;-84
2022/09/18 07:41:03;;;;;;;7.80;1.40;;;11.90;99.90;;;;;;6219377;22;20388;-85
2022/09/18 07:43:29;;;;;;;4.05;0.95;;;12.00;99.90;;;;;;6219326;22;20390;-85
2022/09/18 07:45:55;;;;;;;6.25;1.10;;;12.00;99.90;;;;;;6244072;22;20054;-85
2022/09/18 07:48:22;;;;;;;8.73;1.10;;;12.00;99.90;;;;;;6218264;22;20442;-84
2022/09/18 07:50:48;;;;;;;5.97;1.70;;;12.20;99.90;;;;;;6192656;22;20034;-84
2022/09/18 07:53:16;;;;;;;6.03;1.25;;;12.20;99.90;;;;;;6218622;22;20018;-83
2022/09/18 07:55:46;;;;;;;6.07;1.40;;;12.20;99.90;;;;;;6244240;22;20028;-84
2022/09/18 07:58:12;;;;;;;6.10;0.75;;;12.20;99.90;;;;;;6219072;22;20024;-84
2022/09/18 08:00:40;;;;;;;6.18;1.30;;;12.10;99.90;;;;;;6243724;22;20074;-84
2022/09/18 08:03:13;;;;;;;10.07;1.20;;;12.10;99.90;;;;;;6182108;23;20030;-84
2022/09/18 08:05:40;;;;;;;11.23;1.77;;;12.10;99.90;;;;;;6189078;23;20076;-84
2022/09/18 08:08:12;;;;;;;6.72;1.17;;;12.10;99.90;;;;;;6188350;23;20020;-85
2022/09/18 08:10:40;;;;;;;9.57;1.05;;;12.00;99.90;;;;;;6188498;23;20534;-87
2022/09/18 08:13:09;;;;;;;5.55;1.10;;;12.00;99.90;;;;;;6188596;23;20015;-92
2022/09/18 08:15:37;;;;;;;6.93;1.40;;;12.00;99.90;;;;;;6212710;23;20020;-84
2022/09/18 08:18:05;;;;;;;4.55;1.20;;;12.00;99.90;;;;;;6163415;23;20020;-85
2022/09/18 08:20:32;;;;;;;4.47;1.08;;;12.00;99.90;;;;;;6188354;23;20024;-82
2022/09/18 08:22:58;;;;;;;9.35;1.33;;;12.00;99.90;;;;;;6214350;23;20074;-84
2022/09/18 08:25:26;;;;;;;4.38;0.95;;;12.10;99.90;;;;;;6186632;23;20016;-84
2022/09/18 08:27:51;;;;;;;6.18;1.20;;;11.80;99.90;;;;;;6165185;23;20028;-85
2022/09/18 08:30:17;;;;;;;9.00;1.30;;;12.20;99.90;;;;;;6163840;23;20035;-85
2022/09/18 08:32:49;;;;;;;6.28;1.02;;;12.30;99.90;;;;;;6164953;23;20020;-83
2022/09/18 08:35:18;;;;;;;4.10;1.20;;;12.30;99.90;;;;;;6140712;23;20020;-84
2022/09/18 08:37:52;;;;;;;3.25;0.80;;;12.20;99.90;;;;;;6189593;23;20058;-83
2022/09/18 08:40:26;;;;;;;4.03;1.10;;;12.20;99.90;;;;;;6189278;23;20016;-83
2022/09/18 08:43:19;;;;;;;3.28;0.88;;;12.10;99.90;;;;;;6189065;23;20027;-84
2022/09/18 08:45:59;;;;;;;4.95;1.25;;;12.20;99.90;;;;;;6188592;23;20078;-86
2022/09/18 08:48:36;;;;;;;4.57;0.95;;;12.10;99.90;;;;;;6189129;23;20016;-85
2022/09/18 08:51:37;;;;;;;2.95;1.05;;;12.30;99.90;;;;;;6188960;23;20099;-85
2022/09/18 08:54:34;;;;;;;3.97;1.02;;;12.30;99.90;;;;;;6152499;23;20526;-85
2022/09/18 08:57:05;;;;;;;3.67;0.85;;;12.40;99.90;;;;;;6189545;23;20059;-85
2022/09/18 08:59:45;;;;;;;2.65;0.90;;;12.40;99.90;;;;;;6189603;23;20016;-85
2022/09/18 09:02:29;;;;;;;4.68;0.90;;;12.50;99.90;;;;;;6188372;23;20022;-85
2022/09/18 09:05:00;;;;;;;3.60;1.15;;;12.60;99.90;;;;;;6214156;23;20026;-85
2022/09/18 09:08:03;;;;;;;7.53;1.40;;;12.80;99.90;;;;;;6188587;23;20016;-86
2022/09/18 09:10:32;;;;;;;3.75;1.05;;;12.60;99.90;;;;;;6181517;23;20470;-86
2022/09/18 09:13:17;;;;;;;5.05;0.95;;;12.70;99.90;;;;;;6214032;23;20016;-86
2022/09/18 09:16:02;;;;;;;5.47;1.25;;;12.70;99.90;;;;;;6188518;23;20023;-85
2022/09/18 09:19:00;;;;;;;8.02;1.45;;;12.70;99.90;;;;;;6181504;23;20746;-86
2022/09/18 09:21:48;;;;;;;7.07;1.35;;;12.50;99.90;;;;;;6188396;23;20020;-86
2022/09/18 09:24:33;;;;;;;6.65;1.20;;;11.20;99.90;;;;;;6187456;23;20028;-86
2022/09/18 09:27:05;;;;;;;3.80;1.08;;;12.50;99.90;;;;;;6188939;23;20056;-85
2022/09/18 09:29:38;;;;;;;7.25;1.65;;;12.30;99.90;;;;;;6189123;23;20020;-85
2022/09/18 09:32:17;;;;;;;5.68;1.30;;;12.30;99.90;;;;;;6213890;23;20597;-87
2022/09/18 09:34:55;;;;;;;6.07;1.17;;;12.30;99.90;;;;;;6213522;23;20054;-85
2022/09/18 09:37:29;;;;;;;8.85;1.42;;;12.80;99.90;;;;;;6188516;23;20020;-85
2022/09/18 09:40:01;;;;;;;6.00;1.23;;;12.30;99.90;;;;;;6214058;23;20465;-85
2022/09/18 09:42:30;;;;;;;8.15;1.27;;;12.30;99.90;;;;;;6213888;23;20016;-85
2022/09/18 09:45:01;;;;;;;7.63;1.70;;;12.30;99.90;;;;;;6188842;23;20020;-86
2022/09/18 09:47:41;;;;;;;6.47;1.33;;;12.40;99.90;;;;;;6185250;23;20487;-86
2022/09/18 09:50:21;;;;;;;8.07;1.73;;;12.40;99.90;;;;;;6188395;23;20016;-86
2022/09/18 09:52:48;;;;;;;5.80;1.33;;;12.40;99.90;;;;;;6213518;23;20020;-86
2022/09/18 09:55:21;;;;;;;9.48;1.65;;;12.40;99.90;;;;;;6187435;23;20452;-85
2022/09/18 09:58:09;;;;;;;9.95;2.05;;;12.50;99.90;;;;;;6188702;23;20122;-86
2022/09/18 10:01:00;;;;;;;6.47;1.67;;;12.50;99.90;;;;;;6188283;23;20031;-86
2022/09/18 10:03:42;;;;;;;4.88;1.65;;;12.60;99.90;;;;;;6230340;22;20387;-85
2022/09/18 10:06:13;;;;;;;5.63;1.30;;;12.40;99.90;;;;;;6219796;22;20024;-86
2022/09/18 10:08:48;;;;;;;7.95;1.80;;;12.60;99.90;;;;;;6220533;22;20024;-86
2022/09/18 10:11:15;;;;;;;8.85;2.35;;;12.40;99.90;;;;;;6245239;22;20435;-86
2022/09/18 10:13:50;;;;;;;7.78;1.50;;;12.40;99.90;;;;;;6195680;22;20016;-86
2022/09/18 10:16:35;;;;;;;9.55;1.95;;;12.60;99.90;;;;;;6220091;22;20027;-85
2022/09/18 10:19:02;;;;;;;9.40;1.80;;;12.60;99.90;;;;;;6246559;22;20344;-85
2022/09/18 10:21:34;;;;;;;7.47;1.35;;;12.70;99.90;;;;;;6244916;22;20061;-85
2022/09/18 10:24:47;;;;;;;7.35;1.42;;;12.70;99.90;;;;;;6221091;22;20027;-85
2022/09/18 10:27:14;;;;;;;8.38;1.70;;;12.80;99.90;;;;;;6125351;23;20024;-86
2022/09/18 10:29:42;;;;;;;6.03;1.25;;;12.90;99.90;;;;;;6208790;22;20022;-86
2022/09/18 10:32:11;;;;;;;7.18;1.45;;;13.00;99.90;;;;;;6245328;22;20334;-86
2022/09/18 10:34:47;;;;;;;9.13;1.60;;;13.10;99.90;;;;;;6219457;22;20020;-84
2022/09/18 10:37:17;;;;;;;4.75;1.20;;;13.20;99.90;;;;;;6220023;22;20023;-84
2022/09/18 10:39:56;;;;;;;6.68;1.40;;;13.20;99.90;;;;;;6245100;22;20470;-82
2022/09/18 10:42:44;;;;;;;5.28;1.30;;;13.20;99.90;;;;;;6222035;22;20106;-84
2022/09/18 10:45:26;;;;;;;5.40;1.30;;;13.30;99.90;;;;;;6220943;22;20074;-83
2022/09/18 10:48:19;;;;;;;5.07;1.17;;;13.50;99.90;;;;;;6246314;22;20111;-84
2022/09/18 10:50:58;;;;;;;4.18;1.20;;;13.50;99.90;;;;;;6247335;22;20020;-84
2022/09/18 10:53:41;;;;;;;6.72;1.55;;;13.60;99.90;;;;;;6196677;22;20015;-88
2022/09/18 10:56:19;;;;;;;6.32;1.42;;;13.50;99.90;;;;;;6247154;22;20051;-86
2022/09/18 10:58:47;;;;;;;6.63;1.35;;;13.60;99.90;;;;;;6218448;22;20074;-86
2022/09/18 11:01:16;;;;;;;5.30;1.20;;;13.60;99.90;;;;;;6219490;22;20015;-84
2022/09/18 11:04:20;;;;;;;4.30;0.98;;;13.70;99.90;;;;;;6177792;23;20095;-86
2022/09/18 11:06:46;;;;;;;12.02;1.95;;;14.90;99.90;;;;;;6071290;23;20026;-83
2022/09/18 11:09:18;;;;;;;4.95;1.17;;;13.70;99.90;;;;;;6093684;23;20349;-81
2022/09/18 11:11:50;;;;;;;6.25;1.80;;;13.80;99.90;;;;;;6208204;23;20012;-84
2022/09/18 11:14:23;;;;;;;4.40;1.38;;;13.80;99.90;;;;;;6192539;23;20089;-84
2022/09/18 11:16:55;;;;;;;6.28;1.85;;;12.80;99.90;;;;;;6190385;23;20020;-84
2022/09/18 11:19:36;;;;;;;9.23;1.60;;;13.30;99.90;;;;;;6191762;23;20027;-83
2022/09/18 11:22:07;;;;;;;7.90;2.03;;;14.00;99.90;;;;;;6191884;23;20158;-84
2022/09/18 11:24:42;;;;;;;7.47;1.42;;;14.00;99.90;;;;;;6215278;23;20016;-83
2022/09/18 11:27:21;;;;;;;5.45;1.20;;;14.10;99.90;;;;;;6192359;23;20035;-85
2022/09/18 11:29:50;;;;;;;8.30;1.63;;;14.10;99.90;;;;;;6192449;23;20024;-86
2022/09/18 11:32:25;;;;;;;9.18;1.60;;;14.00;99.90;;;;;;6166631;23;20023;-85
2022/09/18 11:35:00;;;;;;;5.28;1.48;;;14.00;99.90;;;;;;6188831;23;20020;-83
2022/09/18 11:37:49;;;;;;;4.50;1.40;;;14.00;99.90;;;;;;6187444;23;20024;-84
2022/09/18 11:40:34;;;;;;;8.23;1.42;;;13.90;99.90;;;;;;6188712;23;20020;-86
2022/09/18 11:43:04;;;;;;;10.68;1.67;;;13.70;99.90;;;;;;6190223;23;20027;-84
2022/09/18 11:46:14;;;;;;;6.13;1.35;;;13.50;99.90;;;;;;6189620;23;20020;-84
2022/09/18 11:49:11;;;;;;;6.47;1.42;;;12.50;99.90;;;;;;6177697;23;20024;-85
2022/09/18 11:51:55;;;;;;;7.95;1.60;;;13.30;99.90;;;;;;6181852;23;20020;-85
2022/09/18 11:55:14;;;;;;;;;;;;;;;;;;;;;
2022/09/18 11:58:01;;;;;;;;;;;13.50;99.90;;;;;;6210475;23;20027;-84
2022/09/18 12:00:31;;;;;;;;;;;13.20;99.90;;;;;;6189330;23;19998;-84
2022/09/18 12:03:18;;;;;;;14.20;2.03;;;13.10;99.90;;;;;;6189347;23;19919;-86
2022/09/18 12:06:22;;;;;;;;;;;;;;;;;;;;;
2022/09/18 12:12:46;;;;;;;6.15;1.33;;;14.00;99.90;;;;;;6200421;23;20022;-85
2022/09/18 12:15:26;;;;;;;6.45;1.38;;;13.10;99.90;;;;;;6216125;23;20020;-85
2022/09/18 12:18:46;;;;;;;5.50;1.13;;;13.00;99.90;;;;;;6191095;23;20066;-87
2022/09/18 12:21:34;;;;;;;;;;;;;;;;;;;;;
2022/09/18 12:24:19;;;;;;;6.93;1.60;;;12.40;99.90;;;;;;6221581;23;20023;-90
2022/09/18 12:27:30;;;;;;;4.78;1.40;;;13.10;99.90;;;;;;6196898;23;20020;-88
2022/09/18 12:30:17;;;;;;;9.85;2.00;;;13.00;99.90;;;;;;6121672;23;20042;-83
2022/09/18 12:32:56;;;;;;;9.98;1.67;;;12.90;99.90;;;;;;6212918;23;20024;-89
2022/09/18 12:35:30;;;;;;;7.00;1.25;;;12.80;99.90;;;;;;6185899;23;20093;-85
2022/09/18 12:38:07;;;;;;;8.18;1.67;;;12.80;99.90;;;;;;6187455;23;20098;-81
2022/09/18 12:41:18;;;;;;;5.97;1.35;;;12.70;99.90;;;;;;6184302;23;20055;-84
2022/09/18 12:43:53;;;;;;;3.97;1.13;;;12.50;99.90;;;;;;6066187;23;20028;-83
2022/09/18 12:46:30;;;;;;;11.18;1.80;;;12.70;99.90;;;;;;6169112;23;20016;-83
2022/09/18 12:49:02;;;;;;;6.47;1.50;;;12.70;99.90;;;;;;6185619;23;20048;-84
2022/09/18 12:51:42;;;;;;;5.80;1.30;;;12.70;99.90;;;;;;6184592;23;20437;-84
2022/09/18 12:54:20;;;;;;;7.35;1.98;;;12.70;99.90;;;;;;6202886;23;20027;-81
2022/09/18 12:57:24;;;;;;;9.05;1.27;;;12.80;99.90;;;;;;6207309;23;20016;-83
2022/09/18 13:00:03;;;;;;;6.82;1.50;;;12.70;99.90;;;;;;6205522;23;20026;-85
2022/09/18 13:02:55;;;;;;;6.55;1.58;;;12.70;99.90;;;;;;6184648;22;20042;-83
2022/09/18 13:05:32;;;;;;;8.05;1.42;;;12.80;99.90;;;;;;6236038;22;20023;-83
2022/09/18 13:08:18;;;;;;;8.38;1.33;;;12.80;99.90;;;;;;6211760;22;20016;-83
2022/09/18 13:10:46;;;;;;;5.97;1.60;;;12.80;99.90;;;;;;6212212;22;20016;-83
2022/09/18 13:13:21;;;;;;;7.28;1.42;;;12.90;99.90;;;;;;6213461;22;20520;-83
2022/09/18 13:16:03;;;;;;;10.15;1.80;;;12.90;99.90;;;;;;6213733;22;20098;-83
2022/09/18 13:18:42;;;;;;;8.07;1.42;;;12.90;99.90;;;;;;6213309;22;20054;-82
2022/09/18 13:21:18;;;;;;;5.18;1.02;;;12.80;99.90;;;;;;6212465;22;20101;-84
2022/09/18 13:23:46;;;;;;;9.50;1.50;;;12.60;99.90;;;;;;6240863;22;20025;-84
2022/09/18 13:26:14;;;;;;;12.75;1.80;;;12.50;99.90;;;;;;6215939;22;20027;-88
2022/09/18 13:28:42;;;;;;;9.55;2.28;;;12.50;99.90;;;;;;6215158;22;20027;-85
2022/09/18 13:31:13;;;;;;;7.88;1.45;;;12.50;99.90;;;;;;6239398;22;20428;-84
2022/09/18 13:33:53;;;;;;;13.82;2.00;;;12.50;99.90;;;;;;6241207;22;20011;-84
2022/09/18 13:36:27;;;;;;;13.40;2.42;;;12.60;99.90;;;;;;6243699;22;20454;-85
2022/09/18 13:38:56;;;;;;;7.63;1.58;;;12.50;99.90;;;;;;6220340;22;20063;-86
2022/09/18 13:41:22;;;;;;;7.15;1.33;;;12.50;99.90;;;;;;6243365;22;20385;-86
2022/09/18 13:43:55;;;;;;;7.75;1.65;;;12.50;99.90;;;;;;6244182;22;20020;-85
2022/09/18 13:46:38;;;;;;;6.70;1.33;;;12.00;99.90;;;;;;6244618;22;20051;-86
2022/09/18 13:49:31;;;;;;;6.20;1.20;;;12.60;99.90;;;;;;6219813;22;20489;-85